createdAt,value
2023-08-01T00:00:04.981Z,427.0000
2023-08-01T00:01:07.194Z,425.0000
2023-08-01T00:02:09.367Z,423.0000
2023-08-01T00:03:11.570Z,421.0000
2023-08-01T00:04:13.696Z,421.0000
2023-08-01T00:05:15.819Z,421.0000
2023-08-01T00:06:17.963Z,424.0000
2023-08-01T00:07:20.081Z,422.0000
2023-08-01T00:08:22.138Z,422.0000
2023-08-01T00:09:24.269Z,426.0000
2023-08-01T00:10:26.379Z,430.0000
2023-08-01T00:11:28.512Z,431.0000
2023-08-01T00:12:30.702Z,429.0000
2023-08-01T00:13:32.853Z,430.0000
2023-08-01T00:14:35.055Z,429.0000
2023-08-01T00:15:37.200Z,427.0000
2023-08-01T00:16:39.696Z,428.0000
2023-08-01T00:17:41.566Z,427.0000
2023-08-01T00:18:41.533Z,428.0000
2023-08-01T00:19:43.682Z,428.0000
2023-08-01T00:20:45.823Z,425.0000
2023-08-01T00:21:48.084Z,424.0000
2023-08-01T00:22:50.184Z,426.0000
2023-08-01T00:23:52.277Z,425.0000
2023-08-01T00:24:54.438Z,426.0000
2023-08-01T00:25:56.620Z,424.0000
2023-08-01T00:26:58.774Z,423.0000
2023-08-01T00:28:01.002Z,423.0000
2023-08-01T00:29:03.102Z,426.0000
2023-08-01T00:30:05.264Z,426.0000
2023-08-01T00:31:07.520Z,424.0000
2023-08-01T00:32:09.626Z,425.0000
2023-08-01T00:33:11.776Z,432.0000
2023-08-01T00:34:13.999Z,427.0000
2023-08-01T00:35:16.163Z,426.0000
2023-08-01T00:36:18.359Z,427.0000
2023-08-01T00:37:20.603Z,427.0000
2023-08-01T00:38:22.851Z,430.0000
2023-08-01T00:39:25.007Z,430.0000
2023-08-01T00:40:27.177Z,432.0000
2023-08-01T00:41:29.378Z,432.0000
2023-08-01T00:42:31.557Z,431.0000
2023-08-01T00:43:33.760Z,432.0000
2023-08-01T00:44:35.916Z,433.0000
2023-08-01T00:45:38.168Z,432.0000
2023-08-01T00:46:40.580Z,432.0000
2023-08-01T00:47:42.569Z,432.0000
2023-08-01T00:48:42.615Z,435.0000
2023-08-01T00:49:44.789Z,436.0000
2023-08-01T00:50:47.006Z,438.0000
2023-08-01T00:51:49.177Z,439.0000
2023-08-01T00:52:51.431Z,438.0000
2023-08-01T00:53:53.730Z,435.0000
2023-08-01T00:54:55.825Z,438.0000
2023-08-01T00:55:58.043Z,439.0000
2023-08-01T00:57:00.246Z,439.0000
2023-08-01T00:58:02.429Z,440.0000
2023-08-01T00:59:04.679Z,439.0000
2023-08-01T01:00:06.803Z,437.0000
2023-08-01T01:01:08.980Z,441.0000
2023-08-01T01:02:11.189Z,438.0000
2023-08-01T01:03:13.472Z,441.0000
2023-08-01T01:04:15.602Z,440.0000
2023-08-01T01:05:17.743Z,439.0000
2023-08-01T01:06:19.883Z,435.0000
2023-08-01T01:07:22.058Z,437.0000
2023-08-01T01:08:24.249Z,437.0000
2023-08-01T01:09:24.256Z,436.0000
2023-08-01T01:10:26.391Z,438.0000
2023-08-01T01:11:28.596Z,434.0000
2023-08-01T01:12:30.787Z,433.0000
2023-08-01T01:13:32.891Z,431.0000
2023-08-01T01:14:35.051Z,433.0000
2023-08-01T01:15:37.136Z,435.0000
2023-08-01T01:16:39.501Z,434.0000
2023-08-01T01:17:41.494Z,432.0000
2023-08-01T01:18:43.597Z,431.0000
2023-08-01T01:19:45.886Z,431.0000
2023-08-01T01:21:08.998Z,421.0000
2023-08-01T01:22:09.535Z,424.0000
2023-08-01T01:23:11.617Z,426.0000
2023-08-01T01:24:13.818Z,426.0000
2023-08-01T01:25:15.946Z,424.0000
2023-08-01T01:26:18.113Z,422.0000
2023-08-01T01:27:20.317Z,423.0000
2023-08-01T01:28:22.530Z,422.0000
2023-08-01T01:29:24.655Z,423.0000
2023-08-01T01:30:26.856Z,425.0000
2023-08-01T01:31:29.109Z,423.0000
2023-08-01T01:32:31.270Z,424.0000
2023-08-01T01:33:33.419Z,426.0000
2023-08-01T01:34:35.635Z,425.0000
2023-08-01T01:35:37.840Z,420.0000
2023-08-01T01:36:40.319Z,421.0000
2023-08-01T01:37:42.161Z,422.0000
2023-08-01T01:38:44.356Z,421.0000
2023-08-01T01:39:46.539Z,423.0000
2023-08-01T01:40:46.623Z,425.0000
2023-08-01T01:41:48.772Z,426.0000
2023-08-01T01:42:50.956Z,424.0000
2023-08-01T01:43:53.139Z,424.0000
2023-08-01T01:44:55.287Z,425.0000
2023-08-01T01:45:57.568Z,425.0000
2023-08-01T01:46:59.677Z,427.0000
2023-08-01T01:48:01.838Z,427.0000
2023-08-01T01:49:03.961Z,429.0000
2023-08-01T01:50:06.112Z,425.0000
2023-08-01T01:51:08.289Z,425.0000
2023-08-01T01:52:10.461Z,427.0000
2023-08-01T01:53:12.608Z,434.0000
2023-08-01T01:54:14.773Z,443.0000
2023-08-01T01:55:16.969Z,450.0000
2023-08-01T01:56:19.134Z,452.0000
2023-08-01T01:57:21.273Z,450.0000
2023-08-01T01:58:23.434Z,446.0000
2023-08-01T01:59:25.584Z,445.0000
2023-08-01T02:00:27.766Z,445.0000
2023-08-01T02:01:29.926Z,444.0000
2023-08-01T02:02:32.150Z,442.0000
2023-08-01T02:03:34.320Z,446.0000
2023-08-01T02:04:36.539Z,446.0000
2023-08-01T02:05:38.691Z,444.0000
2023-08-01T02:06:41.201Z,445.0000
2023-08-01T02:07:43.058Z,445.0000
2023-08-01T02:08:45.261Z,443.0000
2023-08-01T02:09:47.453Z,443.0000
2023-08-01T02:10:49.613Z,439.0000
2023-08-01T02:11:51.800Z,440.0000
2023-08-01T02:12:53.874Z,440.0000
2023-08-01T02:13:53.848Z,441.0000
2023-08-01T02:14:55.950Z,442.0000
2023-08-01T02:15:58.110Z,440.0000
2023-08-01T02:17:00.246Z,437.0000
2023-08-01T02:18:02.336Z,435.0000
2023-08-01T02:19:04.422Z,434.0000
2023-08-01T02:20:06.574Z,432.0000
2023-08-01T02:21:08.730Z,432.0000
2023-08-01T02:22:10.935Z,430.0000
2023-08-01T02:23:14.559Z,432.0000
2023-08-01T02:24:15.144Z,437.0000
2023-08-01T02:25:17.289Z,437.0000
2023-08-01T02:26:19.497Z,434.0000
2023-08-01T02:27:21.648Z,433.0000
2023-08-01T02:28:23.756Z,434.0000
2023-08-01T02:29:25.863Z,435.0000
2023-08-01T02:30:27.969Z,433.0000
2023-08-01T02:31:30.120Z,433.0000
2023-08-01T02:32:32.371Z,436.0000
2023-08-01T02:33:34.553Z,436.0000
2023-08-01T02:34:36.681Z,436.0000
2023-08-01T02:35:38.910Z,436.0000
2023-08-01T02:36:41.363Z,435.0000
2023-08-01T02:37:43.348Z,432.0000
2023-08-01T02:38:45.506Z,430.0000
2023-08-01T02:39:45.598Z,434.0000
2023-08-01T02:40:47.849Z,434.0000
2023-08-01T02:41:50.137Z,438.0000
2023-08-01T02:42:52.304Z,441.0000
2023-08-01T02:43:54.528Z,441.0000
2023-08-01T02:44:56.767Z,440.0000
2023-08-01T02:45:59.036Z,443.0000
2023-08-01T02:47:01.240Z,439.0000
2023-08-01T02:48:03.520Z,438.0000
2023-08-01T02:49:05.667Z,438.0000
2023-08-01T02:50:07.896Z,438.0000
2023-08-01T02:51:10.130Z,441.0000
2023-08-01T02:52:10.120Z,437.0000
2023-08-01T02:53:12.310Z,441.0000
2023-08-01T02:54:14.429Z,444.0000
2023-08-01T02:55:16.603Z,442.0000
2023-08-01T02:56:18.784Z,442.0000
2023-08-01T02:57:21.033Z,444.0000
2023-08-01T02:58:23.233Z,444.0000
2023-08-01T02:59:25.405Z,446.0000
2023-08-01T03:00:27.565Z,441.0000
2023-08-01T03:01:29.825Z,442.0000
2023-08-01T03:02:32.067Z,440.0000
2023-08-01T03:03:34.252Z,440.0000
2023-08-01T03:04:46.482Z,438.0000
2023-08-01T03:05:38.672Z,441.0000
2023-08-01T03:06:41.096Z,444.0000
2023-08-01T03:07:43.079Z,442.0000
2023-08-01T03:08:45.307Z,443.0000
2023-08-01T03:09:47.479Z,442.0000
2023-08-01T03:10:47.543Z,442.0000
2023-08-01T03:11:49.747Z,439.0000
2023-08-01T03:12:51.923Z,436.0000
2023-08-01T03:13:54.225Z,433.0000
2023-08-01T03:14:56.345Z,433.0000
2023-08-01T03:15:58.596Z,430.0000
2023-08-01T03:17:00.794Z,428.0000
2023-08-01T03:18:03.056Z,426.0000
2023-08-01T03:19:05.281Z,426.0000
2023-08-01T03:20:07.472Z,424.0000
2023-08-01T03:21:09.722Z,425.0000
2023-08-01T03:22:11.946Z,429.0000
2023-08-01T03:23:14.177Z,424.0000
2023-08-01T03:24:16.430Z,426.0000
2023-08-01T03:25:16.467Z,427.0000
2023-08-01T03:26:18.640Z,424.0000
2023-08-01T03:27:20.800Z,424.0000
2023-08-01T03:28:23.033Z,420.0000
2023-08-01T03:29:25.234Z,420.0000
2023-08-01T03:30:27.396Z,421.0000
2023-08-01T03:31:29.564Z,422.0000
2023-08-01T03:32:31.790Z,425.0000
2023-08-01T03:33:33.983Z,427.0000
2023-08-01T03:34:36.271Z,427.0000
2023-08-01T03:35:38.448Z,426.0000
2023-08-01T03:36:40.904Z,425.0000
2023-08-01T03:37:42.858Z,426.0000
2023-08-01T03:38:45.051Z,426.0000
2023-08-01T03:39:47.277Z,430.0000
2023-08-01T03:40:49.457Z,429.0000
2023-08-01T03:41:51.683Z,428.0000
2023-08-01T03:42:51.698Z,427.0000
2023-08-01T03:43:53.921Z,428.0000
2023-08-01T03:44:56.055Z,427.0000
2023-08-01T03:45:58.269Z,426.0000
2023-08-01T03:47:00.329Z,422.0000
2023-08-01T03:48:02.531Z,419.0000
2023-08-01T03:49:04.595Z,420.0000
2023-08-01T03:50:06.740Z,420.0000
2023-08-01T03:51:08.876Z,419.0000
2023-08-01T03:52:11.058Z,417.0000
2023-08-01T03:53:13.229Z,418.0000
2023-08-01T03:54:15.405Z,420.0000
2023-08-01T03:55:17.595Z,422.0000
2023-08-01T03:56:19.667Z,421.0000
2023-08-01T03:57:21.831Z,421.0000
2023-08-01T03:58:23.978Z,418.0000
2023-08-01T03:59:26.155Z,419.0000
2023-08-01T04:00:28.308Z,416.0000
2023-08-01T04:01:30.450Z,419.0000
2023-08-01T04:02:32.554Z,425.0000
2023-08-01T04:03:34.703Z,426.0000
2023-08-01T04:04:36.818Z,426.0000
2023-08-01T04:05:38.985Z,427.0000
2023-08-01T04:06:41.470Z,428.0000
2023-08-01T04:07:41.120Z,428.0000
2023-08-01T04:08:43.223Z,429.0000
2023-08-01T04:09:45.360Z,429.0000
2023-08-01T04:10:45.380Z,426.0000
2023-08-01T04:11:47.500Z,425.0000
2023-08-01T04:12:49.657Z,425.0000
2023-08-01T04:13:51.768Z,428.0000
2023-08-01T04:16:15.583Z,412.0000
2023-08-01T04:17:17.542Z,413.0000
2023-08-01T04:18:19.634Z,412.0000
2023-08-01T04:19:21.793Z,414.0000
2023-08-01T04:20:23.951Z,415.0000
2023-08-01T04:21:26.159Z,418.0000
2023-08-01T04:22:28.405Z,415.0000
2023-08-01T04:23:30.571Z,416.0000
2023-08-01T04:24:32.764Z,416.0000
2023-08-01T04:25:34.995Z,415.0000
2023-08-01T04:26:37.317Z,412.0000
2023-08-01T04:27:37.291Z,411.0000
2023-08-01T04:28:39.585Z,412.0000
2023-08-01T04:29:47.040Z,416.0000
2023-08-01T04:30:49.323Z,418.0000
2023-08-01T04:31:49.309Z,419.0000
2023-08-01T04:32:51.483Z,421.0000
2023-08-01T04:33:53.695Z,422.0000
2023-08-01T04:34:55.897Z,424.0000
2023-08-01T04:35:58.157Z,428.0000
2023-08-01T04:36:58.363Z,427.0000
2023-08-01T04:38:00.457Z,427.0000
2023-08-01T04:39:02.680Z,427.0000
2023-08-01T04:40:04.879Z,428.0000
2023-08-01T04:41:07.083Z,427.0000
2023-08-01T04:42:09.322Z,426.0000
2023-08-01T04:43:11.522Z,420.0000
2023-08-01T04:44:13.695Z,420.0000
2023-08-01T04:45:15.908Z,419.0000
2023-08-01T04:46:18.236Z,417.0000
2023-08-01T04:47:20.369Z,416.0000
2023-08-01T04:48:22.498Z,415.0000
2023-08-01T04:49:24.697Z,415.0000
2023-08-01T04:50:26.928Z,418.0000
2023-08-01T04:51:29.091Z,420.0000
2023-08-01T04:52:31.301Z,420.0000
2023-08-01T04:53:33.488Z,423.0000
2023-08-01T04:54:35.708Z,424.0000
2023-08-01T04:55:37.851Z,426.0000
2023-08-01T04:56:38.052Z,428.0000
2023-08-01T04:57:40.131Z,427.0000
2023-08-01T04:58:42.279Z,425.0000
2023-08-01T04:59:44.467Z,427.0000
2023-08-01T05:00:46.637Z,428.0000
2023-08-01T05:01:48.768Z,430.0000
2023-08-01T05:02:49.079Z,431.0000
2023-08-01T05:03:51.052Z,432.0000
2023-08-01T05:04:53.221Z,432.0000
2023-08-01T05:05:55.427Z,433.0000
2023-08-01T05:06:57.618Z,436.0000
2023-08-01T05:07:59.854Z,437.0000
2023-08-01T05:09:02.036Z,437.0000
2023-08-01T05:10:04.233Z,436.0000
2023-08-01T05:11:06.386Z,434.0000
2023-08-01T05:12:08.540Z,430.0000
2023-08-01T05:13:10.743Z,431.0000
2023-08-01T05:14:12.897Z,430.0000
2023-08-01T05:15:15.061Z,430.0000
2023-08-01T05:16:17.223Z,430.0000
2023-08-01T05:17:19.441Z,431.0000
2023-08-01T05:18:21.588Z,430.0000
2023-08-01T05:19:23.673Z,431.0000
2023-08-01T05:20:25.827Z,431.0000
2023-08-01T05:21:28.012Z,431.0000
2023-08-01T05:22:30.162Z,430.0000
2023-08-01T05:23:32.430Z,427.0000
2023-08-01T05:24:34.517Z,424.0000
2023-08-01T05:25:36.745Z,423.0000
2023-08-01T05:26:39.162Z,424.0000
2023-08-01T05:27:41.157Z,427.0000
2023-08-01T05:28:43.467Z,427.0000
2023-08-01T05:29:43.491Z,430.0000
2023-08-01T05:30:45.733Z,428.0000
2023-08-01T05:31:47.887Z,427.0000
2023-08-01T05:32:50.159Z,428.0000
2023-08-01T05:34:19.851Z,423.0000
2023-08-01T05:35:20.278Z,417.0000
2023-08-01T05:36:22.409Z,418.0000
2023-08-01T05:37:24.483Z,414.0000
2023-08-01T05:38:26.564Z,411.0000
2023-08-01T05:39:28.625Z,411.0000
2023-08-01T05:40:30.646Z,415.0000
2023-08-01T05:41:32.733Z,415.0000
2023-08-01T05:42:34.873Z,415.0000
2023-08-01T05:43:36.990Z,418.0000
2023-08-01T05:44:39.060Z,418.0000
2023-08-01T05:45:41.158Z,416.0000
2023-08-01T05:46:43.687Z,414.0000
2023-08-01T05:47:46.940Z,415.0000
2023-08-01T05:48:46.422Z,415.0000
2023-08-01T05:49:48.616Z,412.0000
2023-08-01T05:50:50.686Z,411.0000
2023-08-01T05:51:52.817Z,410.0000
2023-08-01T05:52:54.991Z,410.0000
2023-08-01T05:53:57.151Z,410.0000
2023-08-01T05:54:59.427Z,409.0000
2023-08-01T05:56:01.485Z,406.0000
2023-08-01T05:57:03.571Z,410.0000
2023-08-01T05:58:05.738Z,411.0000
2023-08-01T05:59:07.950Z,411.0000
2023-08-01T06:00:10.187Z,412.0000
2023-08-01T06:01:12.373Z,412.0000
2023-08-01T06:02:14.514Z,410.0000
2023-08-01T06:03:16.766Z,408.0000
2023-08-01T06:04:19.068Z,408.0000
2023-08-01T06:05:21.109Z,407.0000
2023-08-01T06:06:23.239Z,404.0000
2023-08-01T06:07:25.442Z,398.0000
2023-08-01T06:08:27.645Z,396.0000
2023-08-01T06:09:27.707Z,392.0000
2023-08-01T06:10:29.920Z,391.0000
2023-08-01T06:11:32.120Z,391.0000
2023-08-01T06:12:34.318Z,391.0000
2023-08-01T06:13:36.527Z,394.0000
2023-08-01T06:14:38.724Z,394.0000
2023-08-01T06:15:40.958Z,394.0000
2023-08-01T06:16:43.506Z,394.0000
2023-08-01T06:17:45.442Z,394.0000
2023-08-01T06:18:47.564Z,397.0000
2023-08-01T06:19:47.613Z,399.0000
2023-08-01T06:20:49.833Z,400.0000
2023-08-01T06:21:51.956Z,398.0000
2023-08-01T06:22:54.152Z,400.0000
2023-08-01T06:23:56.332Z,399.0000
2023-08-01T06:24:58.524Z,400.0000
2023-08-01T06:26:00.762Z,401.0000
2023-08-01T06:27:02.920Z,400.0000
2023-08-01T06:28:05.137Z,402.0000
2023-08-01T06:29:07.320Z,402.0000
2023-08-01T06:30:09.539Z,402.0000
2023-08-01T06:31:11.751Z,401.0000
2023-08-01T06:32:13.969Z,403.0000
2023-08-01T06:33:16.184Z,406.0000
2023-08-01T06:34:18.324Z,413.0000
2023-08-01T06:35:18.377Z,414.0000
2023-08-01T06:36:20.670Z,413.0000
2023-08-01T06:37:22.744Z,414.0000
2023-08-01T06:38:24.977Z,414.0000
2023-08-01T06:39:27.163Z,413.0000
2023-08-01T06:40:29.379Z,412.0000
2023-08-01T06:41:31.607Z,412.0000
2023-08-01T06:42:33.767Z,412.0000
2023-08-01T06:43:35.961Z,412.0000
2023-08-01T06:44:38.186Z,411.0000
2023-08-01T06:45:38.237Z,409.0000
2023-08-01T06:46:40.854Z,410.0000
2023-08-01T06:47:42.732Z,410.0000
2023-08-01T06:48:44.850Z,411.0000
2023-08-01T06:49:47.069Z,412.0000
2023-08-01T06:50:49.264Z,412.0000
2023-08-01T06:51:51.516Z,413.0000
2023-08-01T06:52:53.669Z,413.0000
2023-08-01T06:53:55.847Z,414.0000
2023-08-01T06:54:58.057Z,415.0000
2023-08-01T06:57:15.433Z,403.0000
2023-08-01T06:58:17.584Z,405.0000
2023-08-01T06:59:19.703Z,405.0000
2023-08-01T07:00:21.840Z,406.0000
2023-08-01T07:01:24.041Z,407.0000
2023-08-01T07:02:26.150Z,408.0000
2023-08-01T07:03:28.266Z,407.0000
2023-08-01T07:04:30.422Z,408.0000
2023-08-01T07:05:32.611Z,410.0000
2023-08-01T07:06:34.782Z,410.0000
2023-08-01T07:07:37.026Z,416.0000
2023-08-01T07:08:40.125Z,417.0000
2023-08-01T07:09:41.338Z,416.0000
2023-08-01T07:10:43.487Z,417.0000
2023-08-01T07:11:45.638Z,419.0000
2023-08-01T07:12:47.858Z,420.0000
2023-08-01T07:13:49.983Z,422.0000
2023-08-01T07:14:52.117Z,418.0000
2023-08-01T07:15:54.355Z,418.0000
2023-08-01T07:16:56.424Z,420.0000
2023-08-01T07:17:58.632Z,417.0000
2023-08-01T07:19:00.708Z,417.0000
2023-08-01T07:20:02.868Z,416.0000
2023-08-01T07:21:05.015Z,417.0000
2023-08-01T07:22:07.178Z,417.0000
2023-08-01T07:23:09.367Z,413.0000
2023-08-01T07:24:11.529Z,413.0000
2023-08-01T07:25:13.060Z,413.0000
2023-08-01T07:26:13.733Z,416.0000
2023-08-01T07:27:15.822Z,416.0000
2023-08-01T07:28:18.008Z,419.0000
2023-08-01T07:29:20.026Z,420.0000
2023-08-01T07:30:22.148Z,415.0000
2023-08-01T07:31:24.281Z,415.0000
2023-08-01T07:32:26.382Z,414.0000
2023-08-01T07:33:28.468Z,414.0000
2023-08-01T07:34:30.701Z,409.0000
2023-08-01T07:35:32.875Z,411.0000
2023-08-01T07:36:34.996Z,411.0000
2023-08-01T07:37:37.140Z,417.0000
2023-08-01T07:38:39.325Z,419.0000
2023-08-01T07:39:41.458Z,422.0000
2023-08-01T07:40:43.632Z,423.0000
2023-08-01T07:41:45.809Z,419.0000
2023-08-01T07:42:48.006Z,420.0000
2023-08-01T07:43:50.180Z,417.0000
2023-08-01T07:44:52.352Z,418.0000
2023-08-01T07:45:52.396Z,421.0000
2023-08-01T07:46:54.559Z,420.0000
2023-08-01T07:47:56.742Z,423.0000
2023-08-01T07:48:58.937Z,424.0000
2023-08-01T07:50:01.098Z,423.0000
2023-08-01T07:51:03.293Z,422.0000
2023-08-01T07:52:05.467Z,422.0000
2023-08-01T07:53:07.663Z,421.0000
2023-08-01T07:54:09.968Z,421.0000
2023-08-01T07:55:12.071Z,425.0000
2023-08-01T07:56:14.165Z,422.0000
2023-08-01T07:57:16.306Z,423.0000
2023-08-01T07:58:18.445Z,422.0000
2023-08-01T07:59:20.608Z,423.0000
2023-08-01T08:00:22.708Z,423.0000
2023-08-01T08:01:24.919Z,427.0000
2023-08-01T08:02:27.007Z,426.0000
2023-08-01T08:03:29.282Z,425.0000
2023-08-01T08:04:31.452Z,423.0000
2023-08-01T08:05:33.661Z,420.0000
2023-08-01T08:06:35.825Z,422.0000
2023-08-01T08:07:38.022Z,422.0000
2023-08-01T08:08:40.217Z,425.0000
2023-08-01T08:09:42.475Z,423.0000
2023-08-01T08:10:44.588Z,426.0000
2023-08-01T08:11:46.765Z,428.0000
2023-08-01T08:12:48.922Z,427.0000
2023-08-01T08:13:49.003Z,427.0000
2023-08-01T08:14:51.296Z,429.0000
2023-08-01T08:15:53.426Z,427.0000
2023-08-01T08:16:55.629Z,426.0000
2023-08-01T08:17:57.828Z,423.0000
2023-08-01T08:19:00.020Z,426.0000
2023-08-01T08:20:02.237Z,421.0000
2023-08-01T08:21:04.432Z,426.0000
2023-08-01T08:22:06.629Z,427.0000
2023-08-01T08:23:08.845Z,427.0000
2023-08-01T08:24:11.032Z,428.0000
2023-08-01T08:25:13.319Z,426.0000
2023-08-01T08:26:15.509Z,427.0000
2023-08-01T08:27:17.742Z,424.0000
2023-08-01T08:28:20.015Z,423.0000
2023-08-01T08:29:20.049Z,425.0000
2023-08-01T08:30:22.346Z,426.0000
2023-08-01T08:31:24.503Z,423.0000
2023-08-01T08:32:26.682Z,425.0000
2023-08-01T08:33:28.835Z,420.0000
2023-08-01T08:34:31.084Z,425.0000
2023-08-01T08:35:33.434Z,424.0000
2023-08-01T08:36:35.470Z,428.0000
2023-08-01T08:37:37.575Z,424.0000
2023-08-01T08:38:39.702Z,420.0000
2023-08-01T08:39:41.853Z,420.0000
2023-08-01T08:40:44.044Z,417.0000
2023-08-01T08:41:46.174Z,419.0000
2023-08-01T08:42:48.398Z,417.0000
2023-08-01T08:43:50.607Z,419.0000
2023-08-01T08:44:50.679Z,418.0000
2023-08-01T08:45:52.909Z,417.0000
2023-08-01T08:46:55.124Z,417.0000
2023-08-01T08:47:57.294Z,417.0000
2023-08-01T08:48:59.489Z,418.0000
2023-08-01T08:50:01.678Z,420.0000
2023-08-01T08:51:03.892Z,416.0000
2023-08-01T08:52:06.067Z,415.0000
2023-08-01T08:53:08.280Z,413.0000
2023-08-01T08:54:10.488Z,413.0000
2023-08-01T08:55:12.695Z,413.0000
2023-08-01T08:56:14.871Z,412.0000
2023-08-01T08:57:16.982Z,415.0000
2023-08-01T08:58:19.091Z,416.0000
2023-08-01T08:59:21.185Z,418.0000
2023-08-01T09:00:23.408Z,418.0000
2023-08-01T09:01:25.559Z,419.0000
2023-08-01T09:02:27.605Z,421.0000
2023-08-01T09:03:29.780Z,417.0000
2023-08-01T09:04:31.910Z,417.0000
2023-08-01T09:05:34.002Z,418.0000
2023-08-01T09:06:36.183Z,420.0000
2023-08-01T09:07:38.333Z,413.0000
2023-08-01T09:08:40.547Z,413.0000
2023-08-01T09:09:42.683Z,413.0000
2023-08-01T09:10:44.847Z,413.0000
2023-08-01T09:11:47.068Z,417.0000
2023-08-01T09:12:49.213Z,417.0000
2023-08-01T09:13:51.463Z,417.0000
2023-08-01T09:14:53.606Z,419.0000
2023-08-01T09:15:55.825Z,420.0000
2023-08-01T09:16:58.068Z,420.0000
2023-08-01T09:18:00.219Z,420.0000
2023-08-01T09:19:02.362Z,417.0000
2023-08-01T09:20:04.527Z,418.0000
2023-08-01T09:21:06.729Z,418.0000
2023-08-01T09:22:08.871Z,415.0000
2023-08-01T09:23:11.024Z,418.0000
2023-08-01T09:24:13.211Z,417.0000
2023-08-01T09:25:15.374Z,417.0000
2023-08-01T09:26:17.500Z,418.0000
2023-08-01T09:27:19.837Z,416.0000
2023-08-01T09:28:21.917Z,414.0000
2023-08-01T09:29:24.109Z,415.0000
2023-08-01T09:30:26.273Z,415.0000
2023-08-01T09:31:30.466Z,414.0000
2023-08-01T09:32:30.686Z,416.0000
2023-08-01T09:33:30.692Z,415.0000
2023-08-01T09:34:34.601Z,402.0000
2023-08-01T09:35:35.115Z,400.0000
2023-08-01T09:36:37.199Z,402.0000
2023-08-01T09:37:39.433Z,404.0000
2023-08-01T09:38:41.417Z,404.0000
2023-08-01T09:39:43.559Z,401.0000
2023-08-01T09:40:45.692Z,402.0000
2023-08-01T09:41:47.836Z,403.0000
2023-08-01T09:42:50.030Z,407.0000
2023-08-01T09:43:52.143Z,406.0000
2023-08-01T09:44:54.289Z,407.0000
2023-08-01T09:45:56.598Z,408.0000
2023-08-01T09:46:58.539Z,407.0000
2023-08-01T09:48:00.765Z,409.0000
2023-08-01T09:49:02.841Z,410.0000
2023-08-01T09:50:05.020Z,412.0000
2023-08-01T09:51:07.174Z,413.0000
2023-08-01T09:52:09.318Z,410.0000
2023-08-01T09:53:11.496Z,411.0000
2023-08-01T09:54:13.668Z,404.0000
2023-08-01T09:55:15.803Z,403.0000
2023-08-01T09:56:17.954Z,403.0000
2023-08-01T09:57:20.066Z,402.0000
2023-08-01T09:58:22.265Z,408.0000
2023-08-01T09:59:24.356Z,409.0000
2023-08-01T10:00:26.446Z,411.0000
2023-08-01T10:01:28.576Z,408.0000
2023-08-01T10:02:30.725Z,405.0000
2023-08-01T10:03:32.953Z,407.0000
2023-08-01T10:04:34.960Z,408.0000
2023-08-01T10:05:37.037Z,407.0000
2023-08-01T10:06:39.518Z,408.0000
2023-08-01T10:07:41.209Z,405.0000
2023-08-01T10:08:43.365Z,402.0000
2023-08-01T10:09:43.291Z,404.0000
2023-08-01T10:10:45.420Z,403.0000
2023-08-01T10:11:47.536Z,401.0000
2023-08-01T10:12:49.707Z,401.0000
2023-08-01T10:13:51.889Z,401.0000
2023-08-01T10:14:53.977Z,404.0000
2023-08-01T10:15:56.134Z,408.0000
2023-08-01T10:16:58.430Z,406.0000
2023-08-01T10:18:00.518Z,409.0000
2023-08-01T10:19:02.664Z,406.0000
2023-08-01T10:20:04.890Z,403.0000
2023-08-01T10:21:06.980Z,403.0000
2023-08-01T10:22:09.154Z,403.0000
2023-08-01T10:23:11.343Z,401.0000
2023-08-01T10:24:13.520Z,402.0000
2023-08-01T10:25:15.596Z,404.0000
2023-08-01T10:26:17.707Z,402.0000
2023-08-01T10:27:21.996Z,400.0000
2023-08-01T10:28:19.802Z,402.0000
2023-08-01T10:29:22.021Z,403.0000
2023-08-01T10:30:24.141Z,403.0000
2023-08-01T10:31:26.335Z,402.0000
2023-08-01T10:32:28.449Z,405.0000
2023-08-01T10:33:30.611Z,400.0000
2023-08-01T10:34:32.841Z,403.0000
2023-08-01T10:35:35.022Z,400.0000
2023-08-01T10:36:37.154Z,399.0000
2023-08-01T10:37:39.341Z,397.0000
2023-08-01T10:38:41.511Z,403.0000
2023-08-01T10:39:43.720Z,401.0000
2023-08-01T10:40:45.839Z,404.0000
2023-08-01T10:41:48.053Z,418.0000
2023-08-01T10:42:50.231Z,411.0000
2023-08-01T10:43:52.450Z,412.0000
2023-08-01T10:44:54.729Z,412.0000
2023-08-01T10:45:56.863Z,408.0000
2023-08-01T10:46:59.027Z,408.0000
2023-08-01T10:48:01.226Z,408.0000
2023-08-01T10:49:03.397Z,407.0000
2023-08-01T10:50:05.640Z,406.0000
2023-08-01T10:51:07.776Z,406.0000
2023-08-01T10:52:09.989Z,402.0000
2023-08-01T10:53:10.064Z,402.0000
2023-08-01T10:54:12.229Z,397.0000
2023-08-01T10:55:14.558Z,401.0000
2023-08-01T10:56:16.611Z,397.0000
2023-08-01T10:57:18.780Z,399.0000
2023-08-01T10:58:20.989Z,399.0000
2023-08-01T10:59:23.181Z,403.0000
2023-08-01T11:00:25.445Z,403.0000
2023-08-01T11:01:27.676Z,401.0000
2023-08-01T11:02:29.928Z,401.0000
2023-08-01T11:03:31.965Z,403.0000
2023-08-01T11:04:34.046Z,402.0000
2023-08-01T11:05:36.210Z,400.0000
2023-08-01T11:06:38.391Z,398.0000
2023-08-01T11:07:40.477Z,402.0000
2023-08-01T11:08:42.667Z,403.0000
2023-08-01T11:09:44.825Z,402.0000
2023-08-01T11:10:47.027Z,398.0000
2023-08-01T11:11:49.210Z,399.0000
2023-08-01T11:12:51.441Z,401.0000
2023-08-01T11:13:53.628Z,403.0000
2023-08-01T11:14:55.815Z,403.0000
2023-08-01T11:15:58.049Z,404.0000
2023-08-01T11:17:00.876Z,407.0000
2023-08-01T11:18:02.336Z,405.0000
2023-08-01T11:19:04.465Z,407.0000
2023-08-01T11:20:06.630Z,404.0000
2023-08-01T11:21:08.769Z,402.0000
2023-08-01T11:22:10.924Z,401.0000
2023-08-01T11:23:13.059Z,400.0000
2023-08-01T11:24:15.179Z,399.0000
2023-08-01T11:25:15.157Z,403.0000
2023-08-01T11:26:17.321Z,399.0000
2023-08-01T11:27:19.462Z,399.0000
2023-08-01T11:28:21.611Z,397.0000
2023-08-01T11:29:23.746Z,397.0000
2023-08-01T11:30:25.883Z,396.0000
2023-08-01T11:31:28.158Z,396.0000
2023-08-01T11:32:30.274Z,393.0000
2023-08-01T11:33:32.356Z,396.0000
2023-08-01T11:34:34.560Z,397.0000
2023-08-01T11:35:36.668Z,400.0000
2023-08-01T11:36:39.067Z,403.0000
2023-08-01T11:37:40.984Z,403.0000
2023-08-01T11:38:43.138Z,404.0000
2023-08-01T11:39:45.297Z,402.0000
2023-08-01T11:40:47.520Z,401.0000
2023-08-01T11:41:49.755Z,401.0000
2023-08-01T11:42:51.948Z,402.0000
2023-08-01T11:43:54.122Z,401.0000
2023-08-01T11:44:56.299Z,403.0000
2023-08-01T11:45:58.497Z,404.0000
2023-08-01T11:47:00.801Z,404.0000
2023-08-01T11:48:02.905Z,407.0000
2023-08-01T11:49:05.024Z,404.0000
2023-08-01T11:50:07.308Z,405.0000
2023-08-01T11:51:09.415Z,406.0000
2023-08-01T11:52:11.662Z,402.0000
2023-08-01T11:53:13.825Z,402.0000
2023-08-01T11:54:13.932Z,400.0000
2023-08-01T11:55:16.058Z,400.0000
2023-08-01T11:56:18.252Z,401.0000
2023-08-01T11:57:20.596Z,404.0000
2023-08-01T11:58:22.653Z,410.0000
2023-08-01T11:59:24.887Z,408.0000
2023-08-01T12:00:27.093Z,406.0000
2023-08-01T12:01:29.273Z,406.0000
2023-08-01T12:02:31.545Z,407.0000
2023-08-01T12:03:33.688Z,405.0000
2023-08-01T12:04:35.803Z,404.0000
2023-08-01T12:05:38.046Z,404.0000
2023-08-01T12:06:40.671Z,404.0000
2023-08-01T12:07:42.315Z,402.0000
2023-08-01T12:08:44.442Z,402.0000
2023-08-01T12:09:46.596Z,402.0000
2023-08-01T12:10:48.803Z,403.0000
2023-08-01T12:11:51.001Z,402.0000